createdAt,value
2023-04-18T00:00:28.000Z,4122.0
2023-04-18T00:01:28.000Z,4045.0
2023-04-18T00:02:29.000Z,4041.0
2023-04-18T00:03:28.000Z,3942.0
2023-04-18T00:04:28.000Z,4031.0
2023-04-18T00:05:27.000Z,4050.0
2023-04-18T00:06:28.000Z,3881.0
2023-04-18T00:07:28.000Z,3977.0
2023-04-18T00:08:28.000Z,3928.0
2023-04-18T00:09:28.000Z,4072.0
2023-04-18T00:10:27.000Z,4115.0
2023-04-18T00:11:28.000Z,4117.0
2023-04-18T00:12:28.000Z,4048.0
2023-04-18T00:13:28.000Z,3885.0
2023-04-18T00:14:28.000Z,3979.0
2023-04-18T00:15:29.000Z,3919.0
2023-04-18T00:16:28.000Z,3915.0
2023-04-18T00:17:28.000Z,3982.0
2023-04-18T00:18:27.000Z,3933.0
2023-04-18T00:19:28.000Z,3998.0
2023-04-18T00:20:28.000Z,3966.0
2023-04-18T00:21:28.000Z,4089.0
2023-04-18T00:22:28.000Z,4011.0
2023-04-18T00:23:27.000Z,3987.0
2023-04-18T00:24:28.000Z,4065.0
2023-04-18T00:25:28.000Z,3966.0
2023-04-18T00:26:28.000Z,4025.0
2023-04-18T00:27:28.000Z,4080.0
2023-04-18T00:28:28.000Z,4171.0
2023-04-18T00:29:28.000Z,4003.0
2023-04-18T00:30:28.000Z,4084.0
2023-04-18T00:31:27.000Z,3967.0
2023-04-18T00:32:28.000Z,4029.0
2023-04-18T00:33:28.000Z,4026.0
2023-04-18T00:34:28.000Z,4167.0
2023-04-18T00:35:28.000Z,4137.0
2023-04-18T00:36:28.000Z,4112.0
2023-04-18T00:37:28.000Z,4086.0
2023-04-18T00:38:28.000Z,4141.0
2023-04-18T00:39:29.000Z,4207.0
2023-04-18T00:40:28.000Z,4198.0
2023-04-18T00:41:28.000Z,4267.0
2023-04-18T00:42:27.000Z,4220.0
2023-04-18T00:43:28.000Z,4311.0
2023-04-18T00:44:28.000Z,4243.0
2023-04-18T00:45:28.000Z,4284.0
2023-04-18T00:46:28.000Z,4193.0
2023-04-18T00:47:29.000Z,4074.0
2023-04-18T00:48:28.000Z,4036.0
2023-04-18T00:49:28.000Z,4131.0
2023-04-18T00:50:27.000Z,4075.0
2023-04-18T00:51:28.000Z,4369.0
2023-04-18T00:52:28.000Z,4368.0
2023-04-18T00:53:28.000Z,4231.0
2023-04-18T00:54:28.000Z,4380.0
2023-04-18T00:55:27.000Z,4241.0
2023-04-18T00:56:28.000Z,4198.0
2023-04-18T00:57:28.000Z,4166.0
2023-04-18T00:58:28.000Z,4131.0
2023-04-18T00:59:28.000Z,4049.0
2023-04-18T01:00:29.000Z,3998.0
2023-04-18T01:01:28.000Z,4030.0
2023-04-18T01:02:28.000Z,4315.0
2023-04-18T01:03:27.000Z,4096.0
2023-04-18T01:04:28.000Z,3970.0
2023-04-18T01:05:28.000Z,3922.0
2023-04-18T01:06:28.000Z,3786.0
2023-04-18T01:07:28.000Z,3904.0
2023-04-18T01:08:27.000Z,3951.0
2023-04-18T01:09:28.000Z,4017.0
2023-04-18T01:10:28.000Z,4048.0
2023-04-18T01:11:28.000Z,4015.0
2023-04-18T01:12:28.000Z,4193.0
2023-04-18T01:13:29.000Z,3967.0
2023-04-18T01:14:28.000Z,3849.0
2023-04-18T01:15:28.000Z,3975.0
2023-04-18T01:16:27.000Z,3860.0
2023-04-18T01:17:28.000Z,3981.0
2023-04-18T01:18:28.000Z,4020.0
2023-04-18T01:19:28.000Z,4100.0
2023-04-18T01:20:28.000Z,4043.0
2023-04-18T01:21:27.000Z,4109.0
2023-04-18T01:22:28.000Z,4156.0
2023-04-18T01:23:28.000Z,4054.0
2023-04-18T01:24:28.000Z,4138.0
2023-04-18T01:25:28.000Z,4029.0
2023-04-18T01:26:29.000Z,3981.0
2023-04-18T01:27:28.000Z,3946.0
2023-04-18T01:28:28.000Z,3994.0
2023-04-18T01:29:27.000Z,3911.0
2023-04-18T01:30:28.000Z,4075.0
2023-04-18T01:31:28.000Z,3937.0
2023-04-18T01:32:28.000Z,4024.0
2023-04-18T01:33:28.000Z,4051.0
2023-04-18T01:34:27.000Z,3991.0
2023-04-18T01:35:28.000Z,3946.0
2023-04-18T01:36:28.000Z,4005.0
2023-04-18T01:37:27.000Z,3958.0
2023-04-18T01:38:28.000Z,4095.0
2023-04-18T01:39:28.000Z,4070.0
2023-04-18T01:40:27.000Z,4099.0
2023-04-18T01:41:28.000Z,4028.0
2023-04-18T01:42:28.000Z,4171.0
2023-04-18T01:43:28.000Z,4155.0
2023-04-18T01:44:28.000Z,4018.0
2023-04-18T01:45:27.000Z,3899.0
2023-04-18T01:46:28.000Z,3807.0
2023-04-18T01:47:28.000Z,3869.0
2023-04-18T01:48:27.000Z,3877.0
2023-04-18T01:49:28.000Z,3901.0
2023-04-18T01:50:28.000Z,3989.0
2023-04-18T01:51:28.000Z,3811.0
2023-04-18T01:52:28.000Z,3841.0
2023-04-18T01:53:27.000Z,3731.0
2023-04-18T01:54:28.000Z,3853.0
2023-04-18T01:55:28.000Z,3889.0
2023-04-18T01:56:28.000Z,3888.0
2023-04-18T01:57:28.000Z,3735.0
2023-04-18T01:58:29.000Z,3675.0
2023-04-18T01:59:28.000Z,3598.0
2023-04-18T02:00:28.000Z,3676.0
2023-04-18T02:01:27.000Z,3737.0
2023-04-18T02:02:28.000Z,3917.0
2023-04-18T02:03:28.000Z,3943.0
2023-04-18T02:04:28.000Z,3969.0
2023-04-18T02:05:28.000Z,3935.0
2023-04-18T02:06:27.000Z,3960.0
2023-04-18T02:07:28.000Z,3963.0
2023-04-18T02:08:28.000Z,4038.0
2023-04-18T02:09:28.000Z,4005.0
2023-04-18T02:10:28.000Z,4070.0
2023-04-18T02:11:27.000Z,4158.0
2023-04-18T02:12:28.000Z,4205.0
2023-04-18T02:13:28.000Z,3978.0
2023-04-18T02:14:27.000Z,3945.0
2023-04-18T02:15:28.000Z,3899.0
2023-04-18T02:16:28.000Z,4017.0
2023-04-18T02:17:28.000Z,4011.0
2023-04-18T02:18:28.000Z,4020.0
2023-04-18T02:19:27.000Z,4081.0
2023-04-18T02:20:28.000Z,4168.0
2023-04-18T02:21:28.000Z,4056.0
2023-04-18T02:22:28.000Z,3920.0
2023-04-18T02:23:28.000Z,3908.0
2023-04-18T02:24:28.000Z,3860.0
2023-04-18T02:25:28.000Z,3999.0
2023-04-18T02:26:28.000Z,3991.0
2023-04-18T02:27:27.000Z,3926.0
2023-04-18T02:28:28.000Z,3957.0
2023-04-18T02:29:28.000Z,3985.0
2023-04-18T02:30:28.000Z,4037.0
2023-04-18T02:31:28.000Z,3979.0
2023-04-18T02:32:27.000Z,4039.0
2023-04-18T02:33:28.000Z,3911.0
2023-04-18T02:34:28.000Z,3898.0
2023-04-18T02:35:27.000Z,3816.0
2023-04-18T02:36:28.000Z,3769.0
2023-04-18T02:37:28.000Z,3729.0
2023-04-18T02:38:27.000Z,3679.0
2023-04-18T02:40:28.000Z,3711.0
2023-04-18T02:41:28.000Z,3693.0
2023-04-18T02:42:28.000Z,3671.0
2023-04-18T02:43:27.000Z,3693.0
2023-04-18T02:44:28.000Z,3741.0
2023-04-18T02:45:28.000Z,3838.0
2023-04-18T02:46:27.000Z,3850.0
2023-04-18T02:47:28.000Z,3767.0
2023-04-18T02:48:29.000Z,3700.0
2023-04-18T02:49:28.000Z,3643.0
2023-04-18T02:50:28.000Z,3633.0
2023-04-18T02:51:27.000Z,3845.0
2023-04-18T02:52:28.000Z,3770.0
2023-04-18T02:53:28.000Z,3820.0
2023-04-18T02:54:28.000Z,3800.0
2023-04-18T02:55:28.000Z,3720.0
2023-04-18T02:56:27.000Z,3780.0
2023-04-18T02:57:28.000Z,3825.0
2023-04-18T02:58:28.000Z,3816.0
2023-04-18T02:59:28.000Z,3837.0
2023-04-18T03:00:28.000Z,3799.0
2023-04-18T03:01:28.000Z,3902.0
2023-04-18T03:02:28.000Z,3840.0
2023-04-18T03:03:28.000Z,3920.0
2023-04-18T03:04:27.000Z,3915.0
2023-04-18T03:05:28.000Z,3895.0
2023-04-18T03:06:28.000Z,3856.0
2023-04-18T03:07:28.000Z,3690.0
2023-04-18T03:08:28.000Z,3586.0
2023-04-18T03:09:27.000Z,3511.0
2023-04-18T03:10:28.000Z,3536.0
2023-04-18T03:11:28.000Z,3573.0
2023-04-18T03:12:27.000Z,3468.0
2023-04-18T03:13:28.000Z,3277.0
2023-04-18T03:14:28.000Z,3385.0
2023-04-18T03:15:28.000Z,3522.0
2023-04-18T03:16:28.000Z,3628.0
2023-04-18T03:17:27.000Z,3470.0
2023-04-18T03:19:28.000Z,3371.0
2023-04-18T03:20:28.000Z,3322.0
2023-04-18T03:21:28.000Z,3320.0
2023-04-18T03:22:27.000Z,3466.0
2023-04-18T03:23:28.000Z,3461.0
2023-04-18T03:24:28.000Z,3486.0
2023-04-18T03:25:27.000Z,3430.0
2023-04-18T03:26:28.000Z,3534.0
2023-04-18T03:27:28.000Z,3477.0
2023-04-18T03:28:28.000Z,3502.0
2023-04-18T03:29:28.000Z,3368.0
2023-04-18T03:30:27.000Z,3361.0
2023-04-18T03:31:28.000Z,3278.0
2023-04-18T03:32:28.000Z,3244.0
2023-04-18T03:34:28.000Z,3198.0
2023-04-18T03:35:27.000Z,3258.0
2023-04-18T03:36:28.000Z,3351.0
2023-04-18T03:37:28.000Z,3444.0
2023-04-18T03:38:29.000Z,3549.0
2023-04-18T03:39:28.000Z,3498.0
2023-04-18T03:40:28.000Z,3504.0
2023-04-18T03:41:27.000Z,3550.0
2023-04-18T03:42:28.000Z,3550.0
2023-04-18T03:43:28.000Z,3372.0
2023-04-18T03:44:28.000Z,3338.0
2023-04-18T03:45:28.000Z,3228.0
2023-04-18T03:46:27.000Z,3263.0
2023-04-18T03:47:28.000Z,3244.0
2023-04-18T03:48:28.000Z,3138.0
2023-04-18T03:49:27.000Z,2990.0
2023-04-18T03:50:28.000Z,2882.0
2023-04-18T03:51:28.000Z,2983.0
2023-04-18T03:52:28.000Z,3126.0
2023-04-18T03:53:28.000Z,3276.0
2023-04-18T03:54:27.000Z,3286.0
2023-04-18T03:55:28.000Z,3302.0
2023-04-18T03:56:28.000Z,3227.0
2023-04-18T03:57:28.000Z,3294.0
2023-04-18T03:58:28.000Z,3347.0
2023-04-18T03:59:27.000Z,3243.0
2023-04-18T04:00:28.000Z,3194.0
2023-04-18T04:01:28.000Z,3172.0
2023-04-18T04:02:27.000Z,3094.0
2023-04-18T04:03:28.000Z,3058.0
2023-04-18T04:04:28.000Z,2998.0
2023-04-18T04:05:28.000Z,3044.0
2023-04-18T04:06:28.000Z,3156.0
2023-04-18T04:07:27.000Z,3062.0
2023-04-18T04:08:28.000Z,2881.0
2023-04-18T04:09:28.000Z,2945.0
2023-04-18T04:10:28.000Z,2852.0
2023-04-18T04:11:28.000Z,2878.0
2023-04-18T04:12:27.000Z,2834.0
2023-04-18T04:13:28.000Z,2912.0
2023-04-18T04:14:28.000Z,2846.0
2023-04-18T04:15:27.000Z,2837.0
2023-04-18T04:16:28.000Z,2869.0
2023-04-18T04:17:28.000Z,2896.0
2023-04-18T04:18:28.000Z,2920.0
2023-04-18T04:19:28.000Z,2879.0
2023-04-18T04:20:27.000Z,2832.0
2023-04-18T04:21:28.000Z,2851.0
2023-04-18T04:22:28.000Z,2831.0
2023-04-18T04:23:28.000Z,2828.0
2023-04-18T04:24:28.000Z,2856.0
2023-04-18T04:25:29.000Z,2820.0
2023-04-18T04:26:28.000Z,2896.0
2023-04-18T04:27:28.000Z,3076.0
2023-04-18T04:28:27.000Z,2991.0
2023-04-18T04:29:28.000Z,2931.0
2023-04-18T04:30:28.000Z,3003.0
2023-04-18T04:31:28.000Z,3066.0
2023-04-18T04:32:28.000Z,3114.0
2023-04-18T04:33:27.000Z,2994.0
2023-04-18T04:34:28.000Z,2928.0
2023-04-18T04:35:28.000Z,2769.0
2023-04-18T04:36:27.000Z,2776.0
2023-04-18T04:37:28.000Z,2781.0
2023-04-18T04:38:28.000Z,2889.0
2023-04-18T04:39:28.000Z,2920.0
2023-04-18T04:40:28.000Z,2922.0
2023-04-18T04:41:28.000Z,2944.0
2023-04-18T04:42:28.000Z,2818.0
2023-04-18T04:43:28.000Z,2974.0
2023-04-18T04:44:27.000Z,2926.0
2023-04-18T04:45:28.000Z,2729.0
2023-04-18T04:46:28.000Z,2782.0
2023-04-18T04:47:28.000Z,2678.0
2023-04-18T04:48:28.000Z,2598.0
2023-04-18T04:49:27.000Z,2610.0
2023-04-18T04:50:28.000Z,2746.0
2023-04-18T04:51:28.000Z,2698.0
2023-04-18T04:52:27.000Z,2690.0
2023-04-18T04:53:28.000Z,2698.0
2023-04-18T04:54:28.000Z,2662.0
2023-04-18T04:55:28.000Z,2670.0
2023-04-18T04:56:28.000Z,2763.0
2023-04-18T04:57:27.000Z,2808.0
2023-04-18T04:58:28.000Z,2811.0
2023-04-18T04:59:28.000Z,2842.0
2023-04-18T05:00:28.000Z,2799.0
2023-04-18T05:01:28.000Z,2755.0
2023-04-18T05:02:28.000Z,2757.0
2023-04-18T05:03:28.000Z,2775.0
2023-04-18T05:04:28.000Z,2588.0
2023-04-18T05:05:27.000Z,2528.0
2023-04-18T05:06:28.000Z,2489.0
2023-04-18T05:07:28.000Z,2456.0
2023-04-18T05:08:28.000Z,2471.0
2023-04-18T05:09:28.000Z,2454.0
2023-04-18T05:10:27.000Z,2419.0
2023-04-18T05:11:28.000Z,2490.0
2023-04-18T05:12:28.000Z,2502.0
2023-04-18T05:13:27.000Z,2467.0
2023-04-18T05:14:28.000Z,2452.0
2023-04-18T05:15:29.000Z,2446.0
2023-04-18T05:16:28.000Z,2460.0
2023-04-18T05:17:28.000Z,2451.0
2023-04-18T05:18:27.000Z,2408.0
2023-04-18T05:19:28.000Z,2422.0
2023-04-18T05:20:28.000Z,2422.0
2023-04-18T05:21:28.000Z,2430.0
2023-04-18T05:22:28.000Z,2503.0
2023-04-18T05:23:27.000Z,2502.0
2023-04-18T05:24:28.000Z,2535.0
2023-04-18T05:25:28.000Z,2494.0
2023-04-18T05:26:28.000Z,2430.0
2023-04-18T05:27:28.000Z,2466.0
2023-04-18T05:28:28.000Z,2374.0
2023-04-18T05:29:28.000Z,2500.0
2023-04-18T05:30:28.000Z,2508.0
2023-04-18T05:31:27.000Z,2540.0
2023-04-18T05:32:28.000Z,2517.0
2023-04-18T05:33:28.000Z,2482.0
2023-04-18T05:34:28.000Z,2457.0
2023-04-18T05:35:28.000Z,2434.0
2023-04-18T05:36:28.000Z,2400.0
2023-04-18T05:37:28.000Z,2396.0
2023-04-18T05:38:28.000Z,2486.0
2023-04-18T05:39:27.000Z,2454.0
2023-04-18T05:40:28.000Z,2432.0
2023-04-18T05:41:28.000Z,2551.0
2023-04-18T05:42:28.000Z,2528.0
2023-04-18T05:43:28.000Z,2557.0
2023-04-18T05:44:27.000Z,2546.0
2023-04-18T05:45:28.000Z,2473.0
2023-04-18T05:46:28.000Z,2376.0
2023-04-18T05:47:28.000Z,2420.0
2023-04-18T05:48:28.000Z,2404.0
2023-04-18T05:49:28.000Z,2409.0
2023-04-18T05:50:28.000Z,2363.0
2023-04-18T05:51:28.000Z,2314.0
2023-04-18T05:52:27.000Z,2284.0
2023-04-18T05:53:28.000Z,2271.0
2023-04-18T05:54:28.000Z,2335.0
2023-04-18T05:55:28.000Z,2383.0
2023-04-18T05:56:28.000Z,2404.0
2023-04-18T05:57:27.000Z,2414.0
2023-04-18T05:58:28.000Z,2384.0
2023-04-18T05:59:28.000Z,2419.0
2023-04-18T06:00:27.000Z,2403.0
2023-04-18T06:01:28.000Z,2379.0
2023-04-18T06:02:28.000Z,2417.0
2023-04-18T06:03:28.000Z,2506.0
2023-04-18T06:04:28.000Z,2469.0
2023-04-18T06:05:27.000Z,2451.0
2023-04-18T06:06:28.000Z,2479.0
2023-04-18T06:07:28.000Z,2457.0
2023-04-18T06:08:28.000Z,2475.0
2023-04-18T06:09:28.000Z,2504.0
2023-04-18T06:10:27.000Z,2474.0
2023-04-18T06:11:28.000Z,2452.0
2023-04-18T06:12:28.000Z,2357.0
2023-04-18T06:13:27.000Z,2345.0
2023-04-18T06:14:28.000Z,2316.0
2023-04-18T06:15:28.000Z,2314.0
2023-04-18T06:16:28.000Z,2303.0
2023-04-18T06:17:28.000Z,2358.0
2023-04-18T06:18:27.000Z,2471.0
2023-04-18T06:19:28.000Z,2510.0
2023-04-18T06:20:28.000Z,2472.0
2023-04-18T06:21:28.000Z,2442.0
2023-04-18T06:22:28.000Z,2437.0
2023-04-18T06:23:27.000Z,2509.0
2023-04-18T06:24:28.000Z,2428.0
2023-04-18T06:25:28.000Z,2299.0
2023-04-18T06:26:27.000Z,2392.0
2023-04-18T06:27:28.000Z,2409.0
2023-04-18T06:29:28.000Z,2419.0
2023-04-18T06:30:28.000Z,2399.0
2023-04-18T06:31:27.000Z,2367.0
2023-04-18T06:32:28.000Z,2374.0
2023-04-18T06:33:28.000Z,2414.0
2023-04-18T06:34:28.000Z,2465.0
2023-04-18T06:35:28.000Z,2434.0
2023-04-18T06:36:28.000Z,2445.0
2023-04-18T06:37:28.000Z,2429.0
2023-04-18T06:38:28.000Z,2461.0
2023-04-18T06:39:27.000Z,2391.0
2023-04-18T06:40:28.000Z,2345.0
2023-04-18T06:41:28.000Z,2427.0
2023-04-18T06:42:28.000Z,2334.0
2023-04-18T06:43:28.000Z,2318.0
2023-04-18T06:44:27.000Z,2415.0
2023-04-18T06:45:28.000Z,2394.0
2023-04-18T06:46:28.000Z,2379.0
2023-04-18T06:47:27.000Z,2398.0
2023-04-18T06:48:28.000Z,2390.0
2023-04-18T06:49:28.000Z,2336.0
2023-04-18T06:50:28.000Z,2373.0
2023-04-18T06:51:28.000Z,2391.0
2023-04-18T06:52:27.000Z,2378.0
2023-04-18T06:53:28.000Z,2364.0
2023-04-18T06:54:28.000Z,2314.0
2023-04-18T06:55:28.000Z,2346.0
2023-04-18T06:56:28.000Z,2464.0
2023-04-18T06:57:27.000Z,2436.0
2023-04-18T06:58:28.000Z,2463.0
2023-04-18T06:59:28.000Z,2511.0
2023-04-18T07:00:27.000Z,2454.0
2023-04-18T07:01:28.000Z,2435.0
2023-04-18T07:02:28.000Z,2366.0
2023-04-18T07:03:28.000Z,2366.0
2023-04-18T07:04:28.000Z,2357.0
2023-04-18T07:05:27.000Z,2338.0
2023-04-18T07:06:28.000Z,2354.0
2023-04-18T07:07:28.000Z,2345.0
2023-04-18T07:08:28.000Z,2340.0
2023-04-18T07:09:28.000Z,2320.0
2023-04-18T07:10:27.000Z,2331.0
2023-04-18T07:11:28.000Z,2400.0
2023-04-18T07:12:28.000Z,2412.0
2023-04-18T07:13:27.000Z,2369.0
2023-04-18T07:14:28.000Z,2301.0
2023-04-18T07:15:28.000Z,2352.0
2023-04-18T07:16:28.000Z,2292.0
2023-04-18T07:17:28.000Z,2292.0
2023-04-18T07:18:27.000Z,2386.0
2023-04-18T07:19:28.000Z,2355.0
2023-04-18T07:20:28.000Z,2457.0
2023-04-18T07:21:28.000Z,2406.0
2023-04-18T07:22:28.000Z,2439.0
2023-04-18T07:23:27.000Z,2384.0
2023-04-18T07:24:28.000Z,2387.0
2023-04-18T07:25:28.000Z,2391.0
2023-04-18T07:26:27.000Z,2514.0
2023-04-18T07:27:28.000Z,2474.0
2023-04-18T07:28:28.000Z,2596.0
2023-04-18T07:29:28.000Z,2518.0
2023-04-18T07:30:28.000Z,2558.0
2023-04-18T07:31:27.000Z,2540.0
2023-04-18T07:32:28.000Z,2521.0
2023-04-18T07:33:28.000Z,2521.0
2023-04-18T07:34:27.000Z,2531.0
2023-04-18T07:35:28.000Z,2523.0
2023-04-18T07:36:28.000Z,2504.0
2023-04-18T07:37:27.000Z,2430.0
2023-04-18T07:38:28.000Z,2393.0
2023-04-18T07:39:28.000Z,2370.0
2023-04-18T07:40:28.000Z,2469.0
2023-04-18T07:41:28.000Z,2465.0
2023-04-18T07:42:27.000Z,2479.0
2023-04-18T07:43:28.000Z,2413.0
2023-04-18T07:44:28.000Z,2421.0
2023-04-18T07:45:27.000Z,2366.0
2023-04-18T07:46:28.000Z,2428.0
2023-04-18T07:47:27.000Z,2459.0
2023-04-18T07:48:28.000Z,2504.0
2023-04-18T07:49:28.000Z,2545.0
2023-04-18T07:50:27.000Z,2530.0
2023-04-18T07:51:28.000Z,2499.0
2023-04-18T07:52:28.000Z,2480.0
2023-04-18T07:53:28.000Z,2554.0
2023-04-18T07:54:28.000Z,2568.0
2023-04-18T07:55:27.000Z,2610.0
2023-04-18T07:56:28.000Z,2616.0
2023-04-18T07:57:28.000Z,2759.0
2023-04-18T07:58:28.000Z,2670.0
2023-04-18T07:59:28.000Z,2634.0
2023-04-18T08:00:28.000Z,2629.0
2023-04-18T08:01:28.000Z,2588.0
2023-04-18T08:02:28.000Z,2461.0
2023-04-18T08:03:27.000Z,2509.0
2023-04-18T08:04:28.000Z,2594.0
2023-04-18T08:05:28.000Z,2557.0
2023-04-18T08:06:28.000Z,2617.0
2023-04-18T08:07:28.000Z,2612.0
2023-04-18T08:08:27.000Z,2631.0
2023-04-18T08:09:28.000Z,2570.0
2023-04-18T08:10:28.000Z,2511.0
2023-04-18T08:11:27.000Z,2620.0
2023-04-18T08:12:28.000Z,2610.0
2023-04-18T08:13:27.000Z,2639.0
2023-04-18T08:14:28.000Z,2726.0
2023-04-18T08:15:28.000Z,2734.0
2023-04-18T08:16:27.000Z,2777.0
2023-04-18T08:17:28.000Z,2752.0
2023-04-18T08:18:28.000Z,2718.0
2023-04-18T08:19:28.000Z,2680.0
2023-04-18T08:20:28.000Z,2642.0
2023-04-18T08:21:27.000Z,2649.0
2023-04-18T08:22:28.000Z,2699.0
2023-04-18T08:23:28.000Z,2657.0
2023-04-18T08:24:27.000Z,2654.0
2023-04-18T08:25:28.000Z,2721.0
2023-04-18T08:26:28.000Z,2844.0
2023-04-18T08:27:28.000Z,2793.0
2023-04-18T08:28:28.000Z,2652.0
2023-04-18T08:29:27.000Z,2702.0
2023-04-18T08:30:28.000Z,2791.0
2023-04-18T08:31:28.000Z,2844.0
2023-04-18T08:32:28.000Z,2756.0
2023-04-18T08:33:28.000Z,2787.0
2023-04-18T08:34:27.000Z,2762.0
2023-04-18T08:35:28.000Z,2731.0
2023-04-18T08:36:28.000Z,2684.0
2023-04-18T08:37:27.000Z,2759.0
2023-04-18T08:38:28.000Z,2803.0
2023-04-18T08:39:28.000Z,2873.0
2023-04-18T08:40:27.000Z,2792.0
2023-04-18T08:41:28.000Z,2894.0
2023-04-18T08:42:28.000Z,2932.0
2023-04-18T08:43:28.000Z,2892.0
2023-04-18T08:44:28.000Z,2811.0
2023-04-18T08:45:27.000Z,2818.0
2023-04-18T08:46:28.000Z,2797.0
2023-04-18T08:47:28.000Z,2693.0
2023-04-18T08:48:27.000Z,2855.0
2023-04-18T08:49:28.000Z,2888.0
2023-04-18T08:50:28.000Z,2992.0
2023-04-18T08:51:28.000Z,3031.0
2023-04-18T08:52:28.000Z,2933.0
2023-04-18T08:53:27.000Z,2932.0
2023-04-18T08:54:28.000Z,2986.0
2023-04-18T08:55:28.000Z,2994.0
2023-04-18T08:56:28.000Z,2965.0
2023-04-18T08:57:28.000Z,2914.0
2023-04-18T08:58:27.000Z,2803.0
2023-04-18T08:59:28.000Z,2821.0
2023-04-18T09:00:28.000Z,2775.0
2023-04-18T09:01:27.000Z,2765.0
2023-04-18T09:02:28.000Z,2856.0
2023-04-18T09:03:28.000Z,2889.0
2023-04-18T09:04:28.000Z,2888.0
2023-04-18T09:05:28.000Z,2928.0
2023-04-18T09:06:27.000Z,3027.0
2023-04-18T09:07:28.000Z,3066.0
2023-04-18T09:08:28.000Z,3062.0
2023-04-18T09:09:28.000Z,3029.0
2023-04-18T09:10:28.000Z,3056.0
2023-04-18T09:11:27.000Z,3094.0
2023-04-18T09:12:28.000Z,3153.0
2023-04-18T09:13:28.000Z,3063.0
2023-04-18T09:14:27.000Z,2997.0
2023-04-18T09:15:28.000Z,3114.0
2023-04-18T09:16:28.000Z,3245.0
2023-04-18T09:17:28.000Z,3111.0
2023-04-18T09:18:28.000Z,3077.0
2023-04-18T09:19:27.000Z,3011.0
2023-04-18T09:20:28.000Z,3044.0
2023-04-18T09:21:28.000Z,3155.0
2023-04-18T09:22:28.000Z,3143.0
2023-04-18T09:23:28.000Z,3163.0
2023-04-18T09:24:27.000Z,3271.0
2023-04-18T09:25:28.000Z,3184.0
2023-04-18T09:26:28.000Z,3081.0
2023-04-18T09:27:27.000Z,2988.0
2023-04-18T09:28:28.000Z,2920.0
2023-04-18T09:29:28.000Z,3054.0
2023-04-18T09:30:28.000Z,3085.0
2023-04-18T09:31:28.000Z,3081.0
2023-04-18T09:32:27.000Z,3099.0
2023-04-18T09:33:28.000Z,3198.0
2023-04-18T09:34:28.000Z,3103.0
2023-04-18T09:35:28.000Z,3152.0
2023-04-18T09:36:28.000Z,3094.0
2023-04-18T09:37:28.000Z,3112.0
2023-04-18T09:38:28.000Z,3192.0
2023-04-18T09:39:28.000Z,3147.0
2023-04-18T09:40:27.000Z,3062.0
2023-04-18T09:41:28.000Z,3078.0
2023-04-18T09:42:28.000Z,3007.0
2023-04-18T09:43:27.000Z,2995.0
2023-04-18T09:44:28.000Z,2909.0
2023-04-18T09:45:28.000Z,2921.0
2023-04-18T09:46:28.000Z,2814.0
2023-04-18T09:47:28.000Z,2937.0
2023-04-18T09:48:27.000Z,2936.0
2023-04-18T09:49:28.000Z,3015.0
2023-04-18T09:50:28.000Z,3096.0
2023-04-18T09:51:27.000Z,2978.0
2023-04-18T09:52:28.000Z,3000.0
2023-04-18T09:53:28.000Z,3057.0
2023-04-18T09:54:28.000Z,3198.0
2023-04-18T09:55:28.000Z,3253.0
2023-04-18T09:56:27.000Z,3129.0
2023-04-18T09:57:28.000Z,3064.0
2023-04-18T09:58:28.000Z,3030.0
2023-04-18T09:59:28.000Z,3164.0
2023-04-18T10:00:28.000Z,3118.0
2023-04-18T10:01:27.000Z,3003.0
2023-04-18T10:02:28.000Z,2967.0
2023-04-18T10:03:28.000Z,3060.0
2023-04-18T10:04:27.000Z,3075.0
2023-04-18T10:05:28.000Z,3049.0
2023-04-18T10:06:28.000Z,2938.0
2023-04-18T10:07:28.000Z,3081.0
2023-04-18T10:08:28.000Z,3078.0
2023-04-18T10:09:27.000Z,3122.0
2023-04-18T10:10:28.000Z,3058.0
2023-04-18T10:11:28.000Z,2970.0
2023-04-18T10:12:27.000Z,2959.0
2023-04-18T10:13:28.000Z,3022.0
2023-04-18T10:14:27.000Z,3051.0
2023-04-18T10:15:28.000Z,3100.0
2023-04-18T10:16:28.000Z,2941.0
2023-04-18T10:17:27.000Z,2990.0
2023-04-18T10:18:28.000Z,2994.0
2023-04-18T10:19:28.000Z,2929.0
2023-04-18T10:20:28.000Z,2849.0
2023-04-18T10:21:28.000Z,2939.0
2023-04-18T10:22:27.000Z,3082.0
2023-04-18T10:23:28.000Z,3090.0
2023-04-18T10:24:28.000Z,3002.0
2023-04-18T10:25:28.000Z,3063.0
2023-04-18T10:26:28.000Z,3045.0
2023-04-18T10:27:27.000Z,3025.0
2023-04-18T10:28:28.000Z,3010.0
2023-04-18T10:29:28.000Z,2977.0
2023-04-18T10:30:27.000Z,3054.0
2023-04-18T10:31:28.000Z,3012.0
2023-04-18T10:32:28.000Z,3143.0
2023-04-18T10:33:28.000Z,3194.0
2023-04-18T10:35:27.000Z,3118.0
2023-04-18T10:36:28.000Z,3028.0
2023-04-18T10:37:28.000Z,2930.0
2023-04-18T10:38:27.000Z,2920.0
2023-04-18T10:39:28.000Z,2915.0
2023-04-18T10:40:28.000Z,2984.0
2023-04-18T10:41:28.000Z,3048.0
2023-04-18T10:42:28.000Z,3148.0
2023-04-18T10:43:27.000Z,3060.0
2023-04-18T10:44:28.000Z,3225.0
2023-04-18T10:45:28.000Z,3251.0
2023-04-18T10:46:28.000Z,3268.0
2023-04-18T10:48:27.000Z,3346.0
2023-04-18T10:49:28.000Z,3299.0
2023-04-18T10:50:28.000Z,3267.0
2023-04-18T10:51:27.000Z,3267.0
2023-04-18T10:52:28.000Z,3175.0
2023-04-18T10:53:28.000Z,3192.0
2023-04-18T10:54:28.000Z,3159.0
2023-04-18T10:55:28.000Z,3131.0
2023-04-18T10:56:27.000Z,3255.0
2023-04-18T10:57:28.000Z,3221.0
2023-04-18T10:58:28.000Z,3388.0
2023-04-18T10:59:27.000Z,3433.0
2023-04-18T11:00:28.000Z,3408.0
2023-04-18T11:01:27.000Z,3372.0
2023-04-18T11:02:28.000Z,3186.0
2023-04-18T11:03:28.000Z,3352.0
2023-04-18T11:04:27.000Z,3404.0
2023-04-18T11:05:28.000Z,3274.0
2023-04-18T11:06:28.000Z,3144.0
2023-04-18T11:07:28.000Z,3149.0
2023-04-18T11:08:28.000Z,3137.0
2023-04-18T11:09:27.000Z,3094.0
2023-04-18T11:10:28.000Z,3311.0
2023-04-18T11:11:28.000Z,3242.0
2023-04-18T11:12:27.000Z,3114.0
2023-04-18T11:13:28.000Z,3080.0
2023-04-18T11:14:27.000Z,3190.0
2023-04-18T11:15:28.000Z,3104.0
2023-04-18T11:16:28.000Z,3223.0
2023-04-18T11:17:27.000Z,3341.0
2023-04-18T11:18:28.000Z,3332.0
2023-04-18T11:19:28.000Z,3287.0
2023-04-18T11:20:28.000Z,3232.0
2023-04-18T11:21:28.000Z,3243.0
2023-04-18T11:22:27.000Z,3259.0
2023-04-18T11:23:28.000Z,3306.0
2023-04-18T11:24:28.000Z,3148.0
2023-04-18T11:25:27.000Z,3241.0
2023-04-18T11:26:28.000Z,3184.0
2023-04-18T11:27:27.000Z,3205.0
2023-04-18T11:28:28.000Z,3149.0
2023-04-18T11:29:28.000Z,3225.0
2023-04-18T11:30:27.000Z,3272.0
2023-04-18T11:31:28.000Z,3302.0
2023-04-18T11:32:28.000Z,3219.0
2023-04-18T11:33:28.000Z,3272.0
2023-04-18T11:34:28.000Z,3283.0
2023-04-18T11:35:27.000Z,3238.0
2023-04-18T11:36:28.000Z,3310.0
2023-04-18T11:37:28.000Z,3331.0
2023-04-18T11:38:27.000Z,3332.0
2023-04-18T11:39:28.000Z,3323.0
2023-04-18T11:40:28.000Z,3284.0
2023-04-18T11:41:27.000Z,3188.0
2023-04-18T11:42:28.000Z,3254.0
2023-04-18T11:43:28.000Z,3322.0
2023-04-18T11:44:28.000Z,3485.0
2023-04-18T11:45:28.000Z,3410.0
2023-04-18T11:46:27.000Z,3509.0
2023-04-18T11:47:28.000Z,3563.0
2023-04-18T11:48:28.000Z,3521.0
2023-04-18T11:49:27.000Z,3566.0
2023-04-18T11:50:28.000Z,3404.0
2023-04-18T11:51:28.000Z,3451.0
2023-04-18T11:52:28.000Z,3539.0
2023-04-18T11:53:28.000Z,3587.0
2023-04-18T11:54:27.000Z,3530.0
2023-04-18T11:55:28.000Z,3547.0
2023-04-18T11:56:28.000Z,3717.0
2023-04-18T11:57:28.000Z,3731.0
2023-04-18T11:58:28.000Z,3581.0
2023-04-18T11:59:27.000Z,3582.0
2023-04-18T12:00:28.000Z,3616.0
2023-04-18T12:01:28.000Z,3547.0
2023-04-18T12:02:27.000Z,3696.0
2023-04-18T12:03:28.000Z,3671.0
2023-04-18T12:04:28.000Z,3701.0
2023-04-18T12:05:28.000Z,3755.0
2023-04-18T12:06:28.000Z,3615.0
2023-04-18T12:07:27.000Z,3576.0
2023-04-18T12:08:28.000Z,3415.0
2023-04-18T12:09:28.000Z,3383.0
2023-04-18T12:10:27.000Z,3418.0
2023-04-18T12:11:28.000Z,3457.0
2023-04-18T12:12:27.000Z,3497.0
2023-04-18T12:13:28.000Z,3396.0
2023-04-18T12:14:28.000Z,3289.0
2023-04-18T12:15:27.000Z,3340.0
2023-04-18T12:16:28.000Z,3377.0
2023-04-18T12:17:28.000Z,3502.0
2023-04-18T12:18:28.000Z,3481.0
2023-04-18T12:19:28.000Z,3517.0
2023-04-18T12:20:27.000Z,3593.0
2023-04-18T12:21:28.000Z,3615.0
2023-04-18T12:22:28.000Z,3425.0
2023-04-18T12:23:27.000Z,3475.0
2023-04-18T12:24:28.000Z,3440.0
2023-04-18T12:25:27.000Z,3375.0
2023-04-18T12:26:28.000Z,3476.0
2023-04-18T12:27:28.000Z,3439.0
2023-04-18T12:28:27.000Z,3456.0
2023-04-18T12:29:28.000Z,3479.0
2023-04-18T12:30:28.000Z,3500.0
2023-04-18T12:31:28.000Z,3611.0
2023-04-18T12:32:28.000Z,3602.0
2023-04-18T12:33:27.000Z,3524.0
2023-04-18T12:34:28.000Z,3514.0